Time;durP1;ratioP1;P1;durP2;ratioP2;P2;SDS_P1;SDS_P2;PMS_P1;PMS_P2;Temp;Humidity;BMP_temperature;BMP_pressure;BME280_temperature;BME280_humidity;BME280_pressure;Samples;Min_cycle;Max_cycle;Signal;HPM_P1;HPM_P2
2023/07/20 00:01:33;;;;;;;5.07;2.07;;;;;;;;;;4985120;28;20464;-90
2023/07/20 00:03:58;;;;;;;2.97;2.00;;;;;;;;;;4987910;28;20440;-89
2023/07/20 00:06:27;;;;;;;4.47;2.70;;;;;;;;;;4988734;28;20620;-90
2023/07/20 00:08:53;;;;;;;5.50;2.00;;;;;;;;;;5006131;28;20421;-89
2023/07/20 00:11:21;;;;;;;3.70;2.30;;;;;;;;;;4988457;28;20412;-88
2023/07/20 00:13:47;;;;;;;3.07;2.30;;;;;;;;;;4988707;28;20424;-89
2023/07/20 00:16:13;;;;;;;3.47;2.10;;;;;;;;;;4990886;28;20420;-89
2023/07/20 00:18:39;;;;;;;4.07;2.00;;;;;;;;;;4991453;28;20427;-88
2023/07/20 00:21:06;;;;;;;3.30;1.80;;;;;;;;;;5011042;28;20451;-89
2023/07/20 00:23:32;;;;;;;6.30;2.10;;;;;;;;;;4989247;28;20420;-90
2023/07/20 00:25:58;;;;;;;3.03;1.70;;;;;;;;;;4997906;28;20922;-89
2023/07/20 00:28:24;;;;;;;5.10;1.90;;;;;;;;;;4992567;28;20436;-90
2023/07/20 00:30:50;;;;;;;3.10;1.87;;;;;;;;;;4987968;28;20478;-90
2023/07/20 00:33:17;;;;;;;2.90;1.90;;;;;;;;;;5005422;28;20514;-90
2023/07/20 00:35:42;;;;;;;2.10;1.60;;;;;;;;;;4998486;28;20584;-89
2023/07/20 00:38:08;;;;;;;3.60;1.73;;;;;;;;;;4993749;28;20977;-89
2023/07/20 00:40:38;;;;;;;2.90;1.57;;;;;;;;;;5012568;28;20430;-89
2023/07/20 00:43:04;;;;;;;2.40;1.80;;;;;;;;;;4990248;28;20839;-89
2023/07/20 00:45:30;;;;;;;3.37;2.30;;;;;;;;;;4985839;28;20944;-89
2023/07/20 00:47:56;;;;;;;3.70;2.03;;;;;;;;;;4990992;28;20440;-89
2023/07/20 00:50:25;;;;;;;2.60;2.03;;;;;;;;;;4987107;28;20463;-89
2023/07/20 00:52:51;;;;;;;3.13;1.70;;;;;;;;;;4983270;28;20896;-89
2023/07/20 00:55:17;;;;;;;5.83;2.27;;;;;;;;;;4987028;28;20460;-89
2023/07/20 00:57:43;;;;;;;3.20;1.80;;;;;;;;;;4985725;28;20573;-90
2023/07/20 01:00:09;;;;;;;4.33;1.80;;;;;;;;;;4989163;28;20912;-89
2023/07/20 01:02:36;;;;;;;4.53;2.03;;;;;;;;;;4986412;28;20490;-89
2023/07/20 01:05:03;;;;;;;2.97;2.17;;;;;;;;;;4988391;28;20462;-89
2023/07/20 01:07:33;;;;;;;2.73;1.87;;;;;;;;;;4988426;28;20492;-90
2023/07/20 01:10:03;;;;;;;3.23;1.60;;;;;;;;;;4988410;28;20435;-89
2023/07/20 01:12:39;;;;;;;2.23;1.60;;;;;;;;;;5002573;28;20523;-90
2023/07/20 01:15:07;;;;;;;3.67;2.20;;;;;;;;;;5000662;28;20443;-90
2023/07/20 01:17:33;;;;;;;2.97;1.80;;;;;;;;;;4984799;28;20461;-88
2023/07/20 01:20:00;;;;;;;2.70;2.00;;;;;;;;;;4990784;28;20866;-87
2023/07/20 01:22:42;;;;;;;6.40;1.90;;;;;;;;;;4980123;28;20449;-88
2023/07/20 01:25:27;;;;;;;4.90;2.07;;;;;;;;;;5004495;28;20839;-88
2023/07/20 01:28:11;;;;;;;4.00;2.00;;;;;;;;;;5002414;28;20947;-89
2023/07/20 01:30:39;;;;;;;4.33;2.43;;;;;;;;;;5001662;28;20543;-89
2023/07/20 01:33:06;;;;;;;2.87;1.83;;;;;;;;;;4997457;28;20439;-89
2023/07/20 01:35:32;;;;;;;3.13;2.10;;;;;;;;;;4985525;28;20835;-90
2023/07/20 01:37:58;;;;;;;2.50;1.63;;;;;;;;;;4989001;28;20425;-89
2023/07/20 01:40:25;;;;;;;3.70;2.40;;;;;;;;;;4997838;28;20538;-88
2023/07/20 01:42:51;;;;;;;4.10;2.30;;;;;;;;;;4996405;28;20457;-88
2023/07/20 01:45:17;;;;;;;4.93;1.70;;;;;;;;;;4994623;28;20422;-90
2023/07/20 01:47:43;;;;;;;2.70;1.73;;;;;;;;;;4988479;28;20425;-89
2023/07/20 01:50:09;;;;;;;3.87;2.07;;;;;;;;;;4986198;28;20509;-89
2023/07/20 01:52:35;;;;;;;2.33;1.87;;;;;;;;;;4984651;28;20429;-89
2023/07/20 01:55:01;;;;;;;4.77;2.17;;;;;;;;;;4997424;28;20443;-89
2023/07/20 01:57:27;;;;;;;3.07;1.80;;;;;;;;;;4988642;28;20455;-89
2023/07/20 01:59:53;;;;;;;6.60;2.70;;;;;;;;;;4988920;28;20424;-88
2023/07/20 02:02:20;;;;;;;3.20;2.00;;;;;;;;;;5018109;28;20526;-89
2023/07/20 02:04:46;;;;;;;2.90;1.93;;;;;;;;;;4993345;28;20452;-89
2023/07/20 02:07:12;;;;;;;2.53;1.83;;;;;;;;;;5012914;28;20428;-88
2023/07/20 02:09:38;;;;;;;2.73;1.93;;;;;;;;;;4997832;28;20434;-89
2023/07/20 02:12:04;;;;;;;4.90;2.07;;;;;;;;;;4982455;28;20937;-89
2023/07/20 02:14:30;;;;;;;2.90;2.10;;;;;;;;;;4988669;28;20482;-89
2023/07/20 02:16:59;;;;;;;2.27;1.70;;;;;;;;;;4982713;28;20413;-89
2023/07/20 02:19:29;;;;;;;2.40;1.90;;;;;;;;;;4986758;28;20443;-89
2023/07/20 02:21:55;;;;;;;3.17;2.10;;;;;;;;;;5014904;28;20457;-89
2023/07/20 02:24:21;;;;;;;3.33;2.63;;;;;;;;;;4983640;28;20516;-88
2023/07/20 02:26:47;;;;;;;5.50;3.70;;;;;;;;;;4988775;28;20459;-88
2023/07/20 02:29:13;;;;;;;4.70;2.40;;;;;;;;;;4984307;28;20460;-88
2023/07/20 02:31:39;;;;;;;3.90;2.53;;;;;;;;;;4982739;28;20436;-88
2023/07/20 02:34:09;;;;;;;2.90;2.10;;;;;;;;;;4983886;28;20956;-89
2023/07/20 02:36:35;;;;;;;4.30;2.03;;;;;;;;;;4989584;28;20439;-89
2023/07/20 02:39:03;;;;;;;4.47;2.30;;;;;;;;;;4985699;28;20443;-89
2023/07/20 02:41:29;;;;;;;4.63;2.03;;;;;;;;;;4993228;28;20460;-88
2023/07/20 02:43:56;;;;;;;3.00;1.90;;;;;;;;;;4984827;28;20512;-89
2023/07/20 02:46:22;;;;;;;3.07;2.30;;;;;;;;;;4998314;28;20495;-88
2023/07/20 02:48:48;;;;;;;3.30;2.03;;;;;;;;;;4998283;28;20428;-88
2023/07/20 02:51:14;;;;;;;4.93;2.40;;;;;;;;;;4984267;28;20421;-88
2023/07/20 02:53:41;;;;;;;4.53;2.10;;;;;;;;;;4981483;28;20417;-89
2023/07/20 02:56:07;;;;;;;2.33;1.80;;;;;;;;;;4995065;28;20419;-89
2023/07/20 02:58:36;;;;;;;3.90;2.53;;;;;;;;;;4986578;28;20512;-89
2023/07/20 03:01:03;;;;;;;3.23;1.97;;;;;;;;;;4983163;28;20495;-89
2023/07/20 03:03:29;;;;;;;2.33;1.93;;;;;;;;;;4980368;28;20952;-89
2023/07/20 03:05:55;;;;;;;4.00;1.93;;;;;;;;;;4979083;28;20427;-88
2023/07/20 03:08:22;;;;;;;4.30;2.50;;;;;;;;;;4997523;28;20515;-89
2023/07/20 03:10:48;;;;;;;4.60;2.30;;;;;;;;;;4990803;28;20436;-90
2023/07/20 03:13:16;;;;;;;2.50;1.87;;;;;;;;;;4999059;28;20503;-88
2023/07/20 03:15:42;;;;;;;4.90;2.50;;;;;;;;;;4980694;28;20685;-88
2023/07/20 03:18:08;;;;;;;6.60;1.93;;;;;;;;;;5003857;28;20441;-89
2023/07/20 03:20:36;;;;;;;2.80;2.07;;;;;;;;;;4982081;28;20490;-89
2023/07/20 03:23:02;;;;;;;7.93;2.30;;;;;;;;;;4982380;28;20432;-88
2023/07/20 03:25:28;;;;;;;3.53;2.53;;;;;;;;;;4989428;28;20485;-88
2023/07/20 03:27:54;;;;;;;3.90;2.17;;;;;;;;;;4991587;28;20431;-91
2023/07/20 03:30:20;;;;;;;4.50;2.17;;;;;;;;;;4993553;28;20432;-90
2023/07/20 03:32:46;;;;;;;3.00;2.00;;;;;;;;;;5009600;28;20420;-90
2023/07/20 03:35:12;;;;;;;3.83;2.20;;;;;;;;;;4995269;28;20428;-89
2023/07/20 03:37:38;;;;;;;3.50;1.90;;;;;;;;;;4991570;28;20420;-90
2023/07/20 03:40:05;;;;;;;7.40;3.10;;;;;;;;;;4988754;28;20433;-90
2023/07/20 03:42:31;;;;;;;4.50;1.93;;;;;;;;;;4993257;28;20456;-90
2023/07/20 03:44:57;;;;;;;3.23;1.73;;;;;;;;;;4987153;28;20433;-90
2023/07/20 03:47:24;;;;;;;3.40;2.20;;;;;;;;;;5005687;28;20434;-89
2023/07/20 03:49:50;;;;;;;3.10;2.07;;;;;;;;;;4975815;28;20440;-90
2023/07/20 03:52:17;;;;;;;2.77;1.77;;;;;;;;;;4987885;28;20460;-90
2023/07/20 03:54:44;;;;;;;3.43;2.20;;;;;;;;;;4991704;28;20527;-92
2023/07/20 03:57:10;;;;;;;4.20;2.47;;;;;;;;;;4994909;28;20443;-89
2023/07/20 03:59:37;;;;;;;4.40;2.50;;;;;;;;;;5005098;28;20813;-89
2023/07/20 04:02:05;;;;;;;3.40;2.50;;;;;;;;;;4986789;28;20467;-88
2023/07/20 04:04:31;;;;;;;5.50;2.37;;;;;;;;;;4991769;28;20432;-91
2023/07/20 04:06:57;;;;;;;2.37;2.03;;;;;;;;;;5004550;28;20433;-90
2023/07/20 04:09:23;;;;;;;6.20;2.70;;;;;;;;;;4992489;28;20530;-89
2023/07/20 04:11:49;;;;;;;4.17;2.27;;;;;;;;;;4985405;28;20449;-90
2023/07/20 04:14:15;;;;;;;4.13;2.27;;;;;;;;;;5007679;28;20444;-90
2023/07/20 04:16:41;;;;;;;5.73;2.00;;;;;;;;;;4989187;28;20436;-88
2023/07/20 04:19:08;;;;;;;3.13;2.20;;;;;;;;;;4987602;28;20459;-89
2023/07/20 04:21:39;;;;;;;3.50;2.47;;;;;;;;;;4982326;28;20441;-87
2023/07/20 04:24:05;;;;;;;2.57;2.07;;;;;;;;;;5010392;28;20415;-89
2023/07/20 04:26:31;;;;;;;3.63;2.33;;;;;;;;;;4997002;28;20428;-90
2023/07/20 04:28:59;;;;;;;3.37;1.97;;;;;;;;;;4990075;28;20463;-89
2023/07/20 04:31:25;;;;;;;5.43;2.07;;;;;;;;;;4985216;28;20437;-89
2023/07/20 04:33:51;;;;;;;4.77;2.23;;;;;;;;;;4993656;28;20440;-90
2023/07/20 04:36:19;;;;;;;3.53;2.40;;;;;;;;;;5007332;28;20485;-91
2023/07/20 04:38:48;;;;;;;4.60;2.10;;;;;;;;;;4996033;28;20437;-90
2023/07/20 04:41:14;;;;;;;4.40;3.03;;;;;;;;;;4996084;28;20456;-90
2023/07/20 04:43:44;;;;;;;3.80;2.23;;;;;;;;;;5003399;28;20404;-89
2023/07/20 04:46:13;;;;;;;3.60;2.10;;;;;;;;;;4994319;28;20432;-89
2023/07/20 04:48:40;;;;;;;4.73;2.00;;;;;;;;;;5025064;28;20411;-88
2023/07/20 04:51:06;;;;;;;6.47;2.47;;;;;;;;;;4988560;28;20964;-89
2023/07/20 04:53:32;;;;;;;3.00;1.67;;;;;;;;;;4997066;28;20420;-87
2023/07/20 04:55:59;;;;;;;3.53;1.93;;;;;;;;;;4982458;28;20512;-91
2023/07/20 04:58:25;;;;;;;4.10;1.43;;;;;;;;;;4995725;28;20803;-88
2023/07/20 05:00:54;;;;;;;2.87;1.90;;;;;;;;;;4982503;28;20421;-89
2023/07/20 05:03:21;;;;;;;3.07;1.70;;;;;;;;;;4986521;28;20428;-90
2023/07/20 05:05:48;;;;;;;2.10;1.53;;;;;;;;;;4991110;28;21118;-88
2023/07/20 05:08:14;;;;;;;3.67;1.70;;;;;;;;;;4984642;28;20433;-88
2023/07/20 05:10:47;;;;;;;4.57;1.90;;;;;;;;;;4993267;28;20434;-87
2023/07/20 05:13:17;;;;;;;5.17;1.70;;;;;;;;;;4990686;28;20491;-88
2023/07/20 05:15:43;;;;;;;2.63;1.83;;;;;;;;;;4987145;28;20435;-88
2023/07/20 05:18:09;;;;;;;5.27;2.07;;;;;;;;;;4987687;28;20424;-88
2023/07/20 05:20:37;;;;;;;2.30;1.60;;;;;;;;;;4986988;28;20420;-89
2023/07/20 05:23:05;;;;;;;2.93;2.60;;;;;;;;;;4979137;28;20468;-90
2023/07/20 05:25:31;;;;;;;2.50;1.60;;;;;;;;;;4979650;28;20717;-89
2023/07/20 05:28:04;;;;;;;2.80;1.80;;;;;;;;;;4997077;28;20432;-90
2023/07/20 05:30:30;;;;;;;2.43;1.70;;;;;;;;;;4993659;28;20432;-90
2023/07/20 05:33:01;;;;;;;2.77;1.73;;;;;;;;;;4999827;28;20428;-90
2023/07/20 05:35:27;;;;;;;2.90;1.87;;;;;;;;;;4996875;28;20586;-89
2023/07/20 05:37:53;;;;;;;3.27;1.47;;;;;;;;;;4991506;28;20424;-92
2023/07/20 05:40:24;;;;;;;4.77;2.47;;;;;;;;;;5004315;28;20452;-91
2023/07/20 05:42:53;;;;;;;5.17;1.93;;;;;;;;;;4982435;28;20469;-92
2023/07/20 05:45:37;;;;;;;2.60;1.60;;;;;;;;;;4996265;28;20452;-94
2023/07/20 05:48:03;;;;;;;4.13;1.60;;;;;;;;;;4991813;28;20443;-92
2023/07/20 05:50:35;;;;;;;3.50;2.40;;;;;;;;;;4966283;28;20525;-91
2023/07/20 05:53:03;;;;;;;2.70;1.57;;;;;;;;;;4949531;28;20433;-92
2023/07/20 05:55:39;;;;;;;3.83;2.30;;;;;;;;;;4946841;29;20430;-91
2023/07/20 05:58:24;;;;;;;2.73;1.50;;;;;;;;;;4953522;28;20445;-91
2023/07/20 06:00:53;;;;;;;4.03;2.63;;;;;;;;;;4984091;28;20798;-90
2023/07/20 06:03:25;;;;;;;4.03;2.27;;;;;;;;;;4969051;28;20438;-91
2023/07/20 06:05:58;;;;;;;2.40;1.63;;;;;;;;;;4964344;28;20458;-92
2023/07/20 06:08:24;;;;;;;4.67;2.30;;;;;;;;;;4961101;28;20457;-92
2023/07/20 06:10:53;;;;;;;3.70;2.70;;;;;;;;;;4979114;28;20469;-92
2023/07/20 06:13:19;;;;;;;4.50;2.90;;;;;;;;;;4976274;28;20446;-92
2023/07/20 06:15:53;;;;;;;3.07;1.63;;;;;;;;;;4957854;28;20512;-92
2023/07/20 06:18:22;;;;;;;2.97;2.07;;;;;;;;;;4948369;28;20482;-92
2023/07/20 06:20:54;;;;;;;3.37;2.03;;;;;;;;;;4964025;28;20453;-92
2023/07/20 06:23:32;;;;;;;4.33;2.33;;;;;;;;;;4974721;28;20438;-91
2023/07/20 06:25:58;;;;;;;2.87;1.93;;;;;;;;;;4964302;28;20449;-92
2023/07/20 06:28:24;;;;;;;6.50;2.40;;;;;;;;;;4994319;28;20440;-91
2023/07/20 06:30:51;;;;;;;6.00;2.40;;;;;;;;;;4987138;28;20440;-91
2023/07/20 06:33:20;;;;;;;4.37;2.20;;;;;;;;;;4986254;28;20439;-90
2023/07/20 06:35:48;;;;;;;4.40;2.30;;;;;;;;;;4985511;28;20436;-91
2023/07/20 06:38:14;;;;;;;6.60;1.80;;;;;;;;;;4987928;28;20432;-92
2023/07/20 06:40:40;;;;;;;2.60;1.83;;;;;;;;;;4986714;28;20483;-91
2023/07/20 06:43:06;;;;;;;3.40;2.33;;;;;;;;;;4980067;28;20514;-91
2023/07/20 06:45:32;;;;;;;3.67;2.03;;;;;;;;;;4970819;28;20447;-91
2023/07/20 06:47:58;;;;;;;2.97;2.20;;;;;;;;;;4999557;28;20445;-92
2023/07/20 06:50:24;;;;;;;3.60;1.80;;;;;;;;;;4968918;28;20441;-89
2023/07/20 06:52:50;;;;;;;2.70;1.97;;;;;;;;;;4965994;28;20431;-89
2023/07/20 06:55:16;;;;;;;7.07;2.20;;;;;;;;;;4984682;28;20972;-92
2023/07/20 06:57:42;;;;;;;4.13;1.90;;;;;;;;;;4968861;28;20595;-92
2023/07/20 07:00:08;;;;;;;3.37;1.90;;;;;;;;;;4988489;28;20440;-91
2023/07/20 07:02:34;;;;;;;3.40;2.17;;;;;;;;;;4989495;28;21075;-92
2023/07/20 07:05:01;;;;;;;4.80;2.00;;;;;;;;;;4992463;28;20438;-91
2023/07/20 07:07:27;;;;;;;4.20;2.30;;;;;;;;;;4985632;28;20429;-91
2023/07/20 07:09:53;;;;;;;4.53;2.47;;;;;;;;;;5002093;28;20421;-91
2023/07/20 07:12:19;;;;;;;2.47;2.23;;;;;;;;;;4993312;28;20488;-92
2023/07/20 07:14:45;;;;;;;6.60;2.00;;;;;;;;;;4991966;28;20419;-90
2023/07/20 07:17:11;;;;;;;4.50;1.73;;;;;;;;;;4998011;28;20443;-90
2023/07/20 07:19:38;;;;;;;4.53;2.30;;;;;;;;;;4993847;28;20432;-91
2023/07/20 07:22:04;;;;;;;6.80;3.00;;;;;;;;;;4989442;28;20494;-91
2023/07/20 07:24:33;;;;;;;3.20;2.07;;;;;;;;;;4992080;28;20527;-93
2023/07/20 07:26:59;;;;;;;3.20;2.20;;;;;;;;;;4992698;28;20460;-91
2023/07/20 07:29:25;;;;;;;5.40;2.10;;;;;;;;;;5009848;28;20435;-93
2023/07/20 07:31:52;;;;;;;3.23;2.20;;;;;;;;;;4996461;28;20428;-92
2023/07/20 07:34:18;;;;;;;3.17;2.40;;;;;;;;;;4992513;28;20436;-93
2023/07/20 07:36:44;;;;;;;3.43;2.33;;;;;;;;;;4994527;28;20443;-92
2023/07/20 07:39:10;;;;;;;2.33;1.73;;;;;;;;;;4993173;28;20433;-93
2023/07/20 07:41:36;;;;;;;4.20;2.30;;;;;;;;;;4992891;28;20464;-92
2023/07/20 07:44:02;;;;;;;3.43;2.43;;;;;;;;;;4994383;28;20420;-92
2023/07/20 07:46:28;;;;;;;3.83;3.27;;;;;;;;;;4996071;28;20420;-93
2023/07/20 07:48:54;;;;;;;4.73;2.93;;;;;;;;;;4994501;28;20443;-92
2023/07/20 07:51:20;;;;;;;3.37;2.13;;;;;;;;;;4994261;28;20443;-92
2023/07/20 07:53:46;;;;;;;3.00;2.10;;;;;;;;;;4994471;28;20408;-92
2023/07/20 07:56:12;;;;;;;6.93;2.53;;;;;;;;;;4997537;28;20936;-92
2023/07/20 07:58:38;;;;;;;5.33;2.13;;;;;;;;;;4991777;28;20476;-91
2023/07/20 08:01:10;;;;;;;3.47;2.30;;;;;;;;;;4995014;28;20838;-93
2023/07/20 08:03:37;;;;;;;5.60;2.73;;;;;;;;;;5022661;28;20417;-93
2023/07/20 08:06:04;;;;;;;5.03;2.50;;;;;;;;;;4995728;28;20428;-92
2023/07/20 08:08:30;;;;;;;4.27;2.40;;;;;;;;;;4997563;28;21139;-93
2023/07/20 08:10:56;;;;;;;4.40;2.53;;;;;;;;;;4993418;28;20431;-92
2023/07/20 08:13:22;;;;;;;3.50;2.20;;;;;;;;;;5004162;28;20416;-91
2023/07/20 08:15:50;;;;;;;3.10;2.17;;;;;;;;;;4988876;28;20928;-92
2023/07/20 08:18:16;;;;;;;4.33;2.10;;;;;;;;;;4991872;28;20500;-92
2023/07/20 08:20:45;;;;;;;6.60;2.50;;;;;;;;;;4993138;28;20396;-92
2023/07/20 08:23:12;;;;;;;5.00;2.53;;;;;;;;;;5004032;28;20483;-91
2023/07/20 08:25:39;;;;;;;6.37;2.13;;;;;;;;;;5007389;28;20499;-93
2023/07/20 08:28:05;;;;;;;3.40;2.03;;;;;;;;;;4990932;28;20452;-91
2023/07/20 08:30:42;;;;;;;3.60;2.50;;;;;;;;;;4991729;28;20493;-92
2023/07/20 08:33:08;;;;;;;3.30;2.37;;;;;;;;;;4955247;28;20511;-93
2023/07/20 08:35:34;;;;;;;2.70;2.00;;;;;;;;;;4943540;28;20410;-90
2023/07/20 08:38:00;;;;;;;4.43;2.23;;;;;;;;;;4934569;28;20422;-90
2023/07/20 08:40:26;;;;;;;3.20;2.80;;;;;;;;;;4964235;28;20396;-91
2023/07/20 08:42:52;;;;;;;2.73;2.27;;;;;;;;;;4934251;28;20573;-90
2023/07/20 08:45:18;;;;;;;4.03;2.40;;;;;;;;;;4937897;28;20453;-90
2023/07/20 08:47:44;;;;;;;4.30;2.50;;;;;;;;;;4929869;29;20513;-91
2023/07/20 08:50:10;;;;;;;4.13;2.67;;;;;;;;;;4933044;28;20441;-90
2023/07/20 08:52:36;;;;;;;4.90;2.20;;;;;;;;;;4937806;28;20423;-90
2023/07/20 08:55:03;;;;;;;3.60;2.47;;;;;;;;;;4937640;28;21158;-90
2023/07/20 08:57:31;;;;;;;4.37;2.30;;;;;;;;;;4942471;29;20607;-90
2023/07/20 08:59:57;;;;;;;4.83;2.07;;;;;;;;;;4953029;28;21431;-89
2023/07/20 09:02:23;;;;;;;6.20;3.30;;;;;;;;;;4934460;28;20477;-90
2023/07/20 09:04:49;;;;;;;3.40;1.97;;;;;;;;;;4981029;28;20440;-92
2023/07/20 09:07:15;;;;;;;2.90;1.93;;;;;;;;;;4989700;28;20443;-91
2023/07/20 09:09:42;;;;;;;3.30;2.30;;;;;;;;;;4989581;28;20547;-91
2023/07/20 09:12:14;;;;;;;10.10;3.10;;;;;;;;;;4997040;28;20426;-92
2023/07/20 09:14:40;;;;;;;3.90;2.00;;;;;;;;;;4988731;28;20388;-89
2023/07/20 09:17:06;;;;;;;4.40;2.00;;;;;;;;;;4988119;28;20474;-91
2023/07/20 09:19:41;;;;;;;3.57;2.07;;;;;;;;;;4989689;28;20413;-93
2023/07/20 09:22:07;;;;;;;3.43;2.30;;;;;;;;;;4990164;28;20483;-92
2023/07/20 09:24:33;;;;;;;7.40;2.50;;;;;;;;;;4988633;28;21139;-92
2023/07/20 09:26:59;;;;;;;4.00;2.20;;;;;;;;;;4994899;28;21057;-93
2023/07/20 09:29:25;;;;;;;2.60;1.80;;;;;;;;;;4992322;28;20420;-92
2023/07/20 09:32:01;;;;;;;3.40;2.23;;;;;;;;;;4990794;28;20451;-92
2023/07/20 09:34:34;;;;;;;3.57;2.10;;;;;;;;;;5007338;28;20411;-93
2023/07/20 09:37:00;;;;;;;3.00;2.20;;;;;;;;;;4993588;28;20437;-92
2023/07/20 09:39:26;;;;;;;3.30;1.90;;;;;;;;;;5004285;28;20448;-92
2023/07/20 09:41:54;;;;;;;3.70;1.80;;;;;;;;;;4990883;28;20464;-92
2023/07/20 09:44:20;;;;;;;3.53;1.90;;;;;;;;;;4993048;28;21304;-91
2023/07/20 09:46:52;;;;;;;2.73;1.80;;;;;;;;;;5005694;28;20404;-90
2023/07/20 09:49:19;;;;;;;8.17;1.70;;;;;;;;;;4990670;28;20435;-90
2023/07/20 09:51:45;;;;;;;2.50;1.47;;;;;;;;;;4993169;28;20443;-92
2023/07/20 09:54:11;;;;;;;2.87;2.10;;;;;;;;;;4990287;28;20432;-90
2023/07/20 09:56:37;;;;;;;3.43;1.93;;;;;;;;;;4991220;28;20932;-90
2023/07/20 09:59:06;;;;;;;3.57;1.70;;;;;;;;;;4985620;28;20435;-90
2023/07/20 10:01:33;;;;;;;3.93;1.90;;;;;;;;;;4981766;28;20555;-90
2023/07/20 10:04:01;;;;;;;3.10;2.10;;;;;;;;;;4982792;28;20440;-89
2023/07/20 10:06:27;;;;;;;3.50;1.70;;;;;;;;;;4988195;28;20503;-91
2023/07/20 10:08:53;;;;;;;3.50;1.90;;;;;;;;;;4985341;28;20593;-90
2023/07/20 10:11:19;;;;;;;3.37;1.77;;;;;;;;;;5005321;28;20511;-90
2023/07/20 10:13:45;;;;;;;4.30;1.90;;;;;;;;;;4986206;28;20854;-90
2023/07/20 10:16:12;;;;;;;3.10;2.20;;;;;;;;;;4987581;28;20416;-90
2023/07/20 10:18:41;;;;;;;2.30;1.50;;;;;;;;;;4981310;28;20532;-91
2023/07/20 10:21:10;;;;;;;3.27;2.00;;;;;;;;;;5003455;28;20439;-91
2023/07/20 10:23:36;;;;;;;2.33;1.80;;;;;;;;;;4988866;28;20436;-90
2023/07/20 10:26:02;;;;;;;2.63;2.13;;;;;;;;;;4980028;28;20552;-90
2023/07/20 10:28:28;;;;;;;3.77;1.70;;;;;;;;;;4988784;28;20408;-92
2023/07/20 10:30:54;;;;;;;3.70;1.80;;;;;;;;;;4989482;28;20792;-91
2023/07/20 10:33:21;;;;;;;2.77;1.80;;;;;;;;;;4999788;28;20416;-90
2023/07/20 10:35:56;;;;;;;2.77;1.50;;;;;;;;;;5007330;28;20439;-92
2023/07/20 10:38:38;;;;;;;5.40;2.27;;;;;;;;;;4996545;28;20938;-91
2023/07/20 10:41:04;;;;;;;2.10;1.60;;;;;;;;;;4993653;28;20540;-91
2023/07/20 10:43:30;;;;;;;2.60;2.00;;;;;;;;;;4996735;28;20436;-91
2023/07/20 10:45:56;;;;;;;7.53;1.80;;;;;;;;;;4992369;28;20853;-92
2023/07/20 10:48:25;;;;;;;3.17;1.43;;;;;;;;;;5012894;28;20525;-92
2023/07/20 10:51:10;;;;;;;2.50;1.80;;;;;;;;;;5010541;28;20800;-91
2023/07/20 10:53:36;;;;;;;2.60;1.50;;;;;;;;;;5009200;28;20427;-92
2023/07/20 10:56:07;;;;;;;2.53;1.73;;;;;;;;;;4993875;28;20489;-92
2023/07/20 10:58:32;;;;;;;2.87;1.87;;;;;;;;;;4994742;28;20416;-93
2023/07/20 11:01:07;;;;;;;3.13;1.47;;;;;;;;;;4995261;28;20424;-92
2023/07/20 11:03:34;;;;;;;2.40;1.80;;;;;;;;;;4991044;28;20419;-91
2023/07/20 11:06:02;;;;;;;4.10;1.80;;;;;;;;;;4997064;28;20443;-90
2023/07/20 11:08:41;;;;;;;2.13;1.37;;;;;;;;;;4992397;28;20433;-90
2023/07/20 11:11:27;;;;;;;6.03;1.53;;;;;;;;;;4982615;28;20809;-89
2023/07/20 11:13:55;;;;;;;2.23;1.27;;;;;;;;;;4978034;28;20813;-90
2023/07/20 11:16:21;;;;;;;2.80;1.63;;;;;;;;;;4996041;28;20416;-91
2023/07/20 11:18:47;;;;;;;2.27;1.40;;;;;;;;;;4990887;28;20466;-91
2023/07/20 11:21:14;;;;;;;3.50;1.30;;;;;;;;;;4980495;28;20451;-90
2023/07/20 11:23:40;;;;;;;3.40;1.87;;;;;;;;;;4992201;28;20427;-91
2023/07/20 11:26:06;;;;;;;2.80;1.57;;;;;;;;;;4994419;28;20418;-91
2023/07/20 11:28:32;;;;;;;2.70;1.33;;;;;;;;;;4991153;28;20426;-91
2023/07/20 11:30:58;;;;;;;2.70;1.20;;;;;;;;;;4989729;28;20499;-92
2023/07/20 11:33:24;;;;;;;2.27;1.37;;;;;;;;;;4985596;28;20438;-91
2023/07/20 11:35:54;;;;;;;3.17;1.70;;;;;;;;;;4990180;28;20439;-90
2023/07/20 11:38:20;;;;;;;3.17;1.40;;;;;;;;;;4982173;28;20778;-90
2023/07/20 11:40:46;;;;;;;2.67;1.43;;;;;;;;;;4990507;28;20446;-91
2023/07/20 11:43:15;;;;;;;2.27;1.40;;;;;;;;;;4982618;28;21030;-90
2023/07/20 11:45:41;;;;;;;2.27;1.30;;;;;;;;;;4986912;28;20440;-91
2023/07/20 11:48:07;;;;;;;6.83;1.70;;;;;;;;;;4987883;28;20419;-91
2023/07/20 11:50:38;;;;;;;5.43;1.60;;;;;;;;;;4992545;28;20459;-91
2023/07/20 11:53:04;;;;;;;3.10;1.67;;;;;;;;;;4985939;28;20420;-91
2023/07/20 11:55:30;;;;;;;2.60;1.60;;;;;;;;;;4987614;28;20427;-91
2023/07/20 11:58:03;;;;;;;2.50;1.60;;;;;;;;;;4987128;28;20452;-88
2023/07/20 12:00:29;;;;;;;2.07;1.20;;;;;;;;;;4997619;28;20432;-92
2023/07/20 12:02:55;;;;;;;9.50;1.67;;;;;;;;;;4978053;28;21085;-91
2023/07/20 12:05:23;;;;;;;3.80;1.40;;;;;;;;;;4985334;28;20429;-91
2023/07/20 12:07:50;;;;;;;1.90;1.30;;;;;;;;;;4973191;28;20466;-91
2023/07/20 12:10:16;;;;;;;2.70;1.50;;;;;;;;;;4975071;28;20796;-91
2023/07/20 12:12:43;;;;;;;3.20;1.30;;;;;;;;;;4988771;28;20431;-90
2023/07/20 12:15:29;;;;;;;2.97;1.73;;;;;;;;;;4987461;28;20416;-91
2023/07/20 12:17:56;;;;;;;4.43;2.23;;;;;;;;;;5016891;28;20467;-91
2023/07/20 12:20:32;;;;;;;2.23;1.37;;;;;;;;;;4988100;28;20430;-90
2023/07/20 12:23:24;;;;;;;3.10;1.50;;;;;;;;;;4978342;28;20466;-91
2023/07/20 12:25:51;;;;;;;2.80;1.60;;;;;;;;;;4992128;28;20451;-90
2023/07/20 12:28:18;;;;;;;2.70;1.63;;;;;;;;;;4984387;28;20456;-89
2023/07/20 12:30:44;;;;;;;4.37;1.67;;;;;;;;;;4997174;28;20437;-90
2023/07/20 12:33:11;;;;;;;3.37;1.77;;;;;;;;;;4985372;28;20437;-91
2023/07/20 12:35:38;;;;;;;4.33;1.90;;;;;;;;;;4987784;28;20421;-90
2023/07/20 12:38:04;;;;;;;6.10;1.57;;;;;;;;;;4985800;28;20967;-91
2023/07/20 12:40:30;;;;;;;2.30;1.63;;;;;;;;;;4986443;28;20441;-91
2023/07/20 12:42:57;;;;;;;2.43;1.40;;;;;;;;;;4982202;28;20549;-91
2023/07/20 12:45:23;;;;;;;2.30;1.40;;;;;;;;;;4987727;28;20428;-91
2023/07/20 12:47:52;;;;;;;3.00;1.50;;;;;;;;;;4987519;28;20435;-90
2023/07/20 12:50:18;;;;;;;2.10;1.53;;;;;;;;;;4988556;28;20432;-90
2023/07/20 12:52:44;;;;;;;2.37;1.43;;;;;;;;;;4985197;28;20500;-91
2023/07/20 12:55:10;;;;;;;2.40;1.47;;;;;;;;;;4981610;28;20443;-91
2023/07/20 12:57:36;;;;;;;10.87;1.50;;;;;;;;;;4988835;28;20420;-92
2023/07/20 13:00:03;;;;;;;2.27;1.37;;;;;;;;;;4987842;28;20462;-91
2023/07/20 13:02:31;;;;;;;2.83;1.70;;;;;;;;;;4986013;28;20543;-90
2023/07/20 13:04:57;;;;;;;2.13;1.33;;;;;;;;;;4982670;28;20433;-91
2023/07/20 13:07:32;;;;;;;3.20;1.27;;;;;;;;;;5003526;28;20409;-91
2023/07/20 13:10:00;;;;;;;3.50;1.40;;;;;;;;;;4994332;28;20419;-92
2023/07/20 13:12:27;;;;;;;3.60;1.43;;;;;;;;;;4981845;28;20437;-91
2023/07/20 13:14:54;;;;;;;2.33;1.70;;;;;;;;;;4988678;28;20478;-91
2023/07/20 13:17:20;;;;;;;5.50;1.70;;;;;;;;;;4987500;28;20503;-91
2023/07/20 13:19:46;;;;;;;2.67;1.40;;;;;;;;;;4989718;28;20464;-92
2023/07/20 13:22:13;;;;;;;1.90;1.10;;;;;;;;;;4986854;28;20462;-92
2023/07/20 13:24:39;;;;;;;2.30;1.47;;;;;;;;;;4987208;28;20446;-92
2023/07/20 13:27:06;;;;;;;2.30;1.50;;;;;;;;;;4987049;28;20420;-93
2023/07/20 13:29:32;;;;;;;2.33;1.33;;;;;;;;;;4988657;28;20471;-92
2023/07/20 13:31:58;;;;;;;2.20;1.40;;;;;;;;;;5005353;28;20465;-92
2023/07/20 13:34:25;;;;;;;1.83;1.20;;;;;;;;;;4984437;28;20572;-93
2023/07/20 13:36:51;;;;;;;2.27;1.47;;;;;;;;;;4966150;28;21019;-90
2023/07/20 13:39:17;;;;;;;4.20;1.40;;;;;;;;;;4967545;28;20416;-91
2023/07/20 13:41:44;;;;;;;2.40;1.60;;;;;;;;;;4966824;28;20536;-92
2023/07/20 13:44:10;;;;;;;3.00;1.70;;;;;;;;;;4966892;28;20955;-92
2023/07/20 13:46:36;;;;;;;2.43;1.50;;;;;;;;;;4967139;28;20428;-91
2023/07/20 13:49:02;;;;;;;2.70;1.73;;;;;;;;;;4967788;28;20477;-93
2023/07/20 13:51:28;;;;;;;2.20;1.50;;;;;;;;;;4967765;28;20556;-93
2023/07/20 13:53:54;;;;;;;2.90;1.47;;;;;;;;;;4981016;28;20816;-93
2023/07/20 13:56:20;;;;;;;2.00;1.30;;;;;;;;;;4971892;28;21317;-93
2023/07/20 13:58:47;;;;;;;2.73;1.50;;;;;;;;;;4967340;28;20425;-93
2023/07/20 14:01:13;;;;;;;3.37;1.30;;;;;;;;;;4967103;28;20441;-92
2023/07/20 14:03:39;;;;;;;2.63;1.73;;;;;;;;;;4970876;28;20425;-94
2023/07/20 14:06:05;;;;;;;3.17;1.70;;;;;;;;;;4966003;28;20434;-93
2023/07/20 14:08:32;;;;;;;2.30;1.33;;;;;;;;;;4987002;28;20958;-91
2023/07/20 14:10:58;;;;;;;2.77;1.37;;;;;;;;;;4991177;28;20428;-96
2023/07/20 14:13:24;;;;;;;2.97;1.30;;;;;;;;;;4987547;28;20437;-92
2023/07/20 14:15:50;;;;;;;3.03;1.53;;;;;;;;;;4989016;28;20408;-93
2023/07/20 14:18:16;;;;;;;2.43;1.30;;;;;;;;;;5002152;28;20412;-84
2023/07/20 14:20:45;;;;;;;3.00;2.00;;;;;;;;;;4983104;28;20428;-93
2023/07/20 14:23:11;;;;;;;2.63;1.63;;;;;;;;;;5004930;28;20608;-92
2023/07/20 14:25:37;;;;;;;2.20;1.33;;;;;;;;;;4987855;28;20396;-92
2023/07/20 14:28:06;;;;;;;4.30;2.40;;;;;;;;;;4985933;28;20425;-91
2023/07/20 14:30:32;;;;;;;2.63;1.90;;;;;;;;;;4985896;28;20447;-91
2023/07/20 14:32:58;;;;;;;3.20;1.60;;;;;;;;;;5004386;28;20435;-90
2023/07/20 14:35:24;;;;;;;2.93;1.63;;;;;;;;;;4989924;28;20456;-91
2023/07/20 14:37:50;;;;;;;5.50;2.00;;;;;;;;;;4990711;28;20419;-92
2023/07/20 14:40:16;;;;;;;5.63;1.47;;;;;;;;;;4989019;28;20435;-92
2023/07/20 14:42:42;;;;;;;3.43;1.60;;;;;;;;;;4990873;28;20448;-93
2023/07/20 14:45:08;;;;;;;2.33;1.50;;;;;;;;;;4990904;28;20418;-92